Terminal Aerodrome Forecast
Issued by NWS Binghamton, NY

Home | Current Version | Previous Version | Text Only | Print | Product List | Glossary On
Versions: 1 2 3 4 5 6 7 8 9 10 11 12 13 14 15 16
000
FTUS41 KBGM 201100
TAFSYR
TAF
KSYR 201123Z 2012/2112 13003KT P6SM BKN250
     FM201600 20005KT P6SM BKN050
      TEMPO 2018/2022 4SM -SHRA BR
     FM202200 15005KT 5SM -SHRA BR BKN050 OVC100
      TEMPO 2108/2112 BKN025=

USA.gov is the U.S. government's official web portal to all federal, state and local government web resources and services.